sensor_id;sensor_type;location;lat;lon;timestamp;pressure;altitude;pressure_sealevel;temperature;humidity
77939;BME280;67136;47.546;21.630;2023-11-19T00:02:52;100651.50;;;2.38;93.27
77939;BME280;67136;47.546;21.630;2023-11-19T00:05:56;100641.25;;;2.36;93.22
77939;BME280;67136;47.546;21.630;2023-11-19T00:08:59;100645.91;;;2.28;93.61
77939;BME280;67136;47.546;21.630;2023-11-19T00:12:06;100631.97;;;2.32;93.29
77939;BME280;67136;47.546;21.630;2023-11-19T00:15:09;100625.91;;;2.33;93.54
77939;BME280;67136;47.546;21.630;2023-11-19T00:18:16;100625.28;;;2.28;94.06
77939;BME280;67136;47.546;21.630;2023-11-19T00:21:21;100637.47;;;2.25;94.15
77939;BME280;67136;47.546;21.630;2023-11-19T00:24:24;100646.94;;;2.24;93.54
77939;BME280;67136;47.546;21.630;2023-11-19T00:27:26;100638.56;;;2.19;93.89
77939;BME280;67136;47.546;21.630;2023-11-19T00:30:30;100639.34;;;2.21;94.45
77939;BME280;67136;47.546;21.630;2023-11-19T00:33:35;100648.59;;;2.25;93.97
77939;BME280;67136;47.546;21.630;2023-11-19T00:36:45;100632.56;;;2.19;94.24
77939;BME280;67136;47.546;21.630;2023-11-19T00:39:48;100632.41;;;2.22;94.43
77939;BME280;67136;47.546;21.630;2023-11-19T00:42:51;100636.91;;;2.18;94.48
77939;BME280;67136;47.546;21.630;2023-11-19T00:45:53;100636.13;;;2.16;94.45
77939;BME280;67136;47.546;21.630;2023-11-19T00:49:02;100632.91;;;2.11;94.87
77939;BME280;67136;47.546;21.630;2023-11-19T00:52:07;100634.69;;;2.09;94.42
77939;BME280;67136;47.546;21.630;2023-11-19T00:55:10;100617.50;;;2.10;94.69
77939;BME280;67136;47.546;21.630;2023-11-19T00:58:14;100618.31;;;2.10;94.43
77939;BME280;67136;47.546;21.630;2023-11-19T01:01:19;100623.66;;;2.06;95.11
77939;BME280;67136;47.546;21.630;2023-11-19T01:04:22;100638.94;;;2.10;95.00
77939;BME280;67136;47.546;21.630;2023-11-19T01:07:26;100622.75;;;2.07;94.95
77939;BME280;67136;47.546;21.630;2023-11-19T01:10:29;100627.91;;;2.07;94.87
77939;BME280;67136;47.546;21.630;2023-11-19T01:13:38;100632.91;;;2.11;94.24
77939;BME280;67136;47.546;21.630;2023-11-19T01:17:05;100629.41;;;2.12;94.54
77939;BME280;67136;47.546;21.630;2023-11-19T01:20:23;100618.59;;;2.04;94.60
77939;BME280;67136;47.546;21.630;2023-11-19T01:23:45;100615.78;;;2.09;93.95
77939;BME280;67136;47.546;21.630;2023-11-19T01:27:35;100622.97;;;2.02;94.71
77939;BME280;67136;47.546;21.630;2023-11-19T01:31:01;100621.28;;;2.01;94.12
77939;BME280;67136;47.546;21.630;2023-11-19T01:34:13;100622.81;;;2.05;93.78
77939;BME280;67136;47.546;21.630;2023-11-19T01:37:37;100624.75;;;2.00;93.76
77939;BME280;67136;47.546;21.630;2023-11-19T01:41:00;100615.22;;;2.02;94.11
77939;BME280;67136;47.546;21.630;2023-11-19T01:44:29;100613.56;;;2.01;95.16
77939;BME280;67136;47.546;21.630;2023-11-19T01:47:44;100612.84;;;1.98;95.04
77939;BME280;67136;47.546;21.630;2023-11-19T01:51:05;100619.53;;;2.02;94.44
77939;BME280;67136;47.546;21.630;2023-11-19T01:54:26;100612.00;;;1.97;94.71
77939;BME280;67136;47.546;21.630;2023-11-19T01:57:54;100618.19;;;1.93;94.86
77939;BME280;67136;47.546;21.630;2023-11-19T02:04:55;100611.28;;;1.94;94.76
77939;BME280;67136;47.546;21.630;2023-11-19T02:08:22;100597.91;;;1.86;95.49
77939;BME280;67136;47.546;21.630;2023-11-19T02:11:44;100604.06;;;1.82;94.38
77939;BME280;67136;47.546;21.630;2023-11-19T02:14:55;100590.47;;;1.78;95.53
77939;BME280;67136;47.546;21.630;2023-11-19T02:18:18;100599.81;;;1.81;95.68
77939;BME280;67136;47.546;21.630;2023-11-19T02:21:41;100590.72;;;1.72;96.03
77939;BME280;67136;47.546;21.630;2023-11-19T02:25:32;100590.88;;;1.69;96.60
77939;BME280;67136;47.546;21.630;2023-11-19T02:28:39;100585.63;;;1.51;97.73
77939;BME280;67136;47.546;21.630;2023-11-19T02:31:59;100587.84;;;1.38;98.62
77939;BME280;67136;47.546;21.630;2023-11-19T02:35:12;100584.34;;;1.19;98.72
77939;BME280;67136;47.546;21.630;2023-11-19T02:38:51;100592.03;;;0.99;100.00
77939;BME280;67136;47.546;21.630;2023-11-19T02:42:12;100576.53;;;0.77;100.00
77939;BME280;67136;47.546;21.630;2023-11-19T02:46:00;100587.38;;;0.64;100.00
77939;BME280;67136;47.546;21.630;2023-11-19T02:49:09;100589.78;;;0.45;100.00
77939;BME280;67136;47.546;21.630;2023-11-19T02:52:29;100601.12;;;0.40;100.00
77939;BME280;67136;47.546;21.630;2023-11-19T02:55:53;100591.03;;;0.34;100.00
77939;BME280;67136;47.546;21.630;2023-11-19T02:59:16;100594.06;;;0.22;100.00
77939;BME280;67136;47.546;21.630;2023-11-19T03:02:39;100600.28;;;0.16;100.00
77939;BME280;67136;47.546;21.630;2023-11-19T03:06:19;100584.84;;;0.16;100.00
77939;BME280;67136;47.546;21.630;2023-11-19T03:09:48;100586.78;;;0.10;100.00
77939;BME280;67136;47.546;21.630;2023-11-19T03:12:59;100589.41;;;0.08;100.00
77939;BME280;67136;47.546;21.630;2023-11-19T03:16:11;100581.84;;;0.03;100.00
77939;BME280;67136;47.546;21.630;2023-11-19T03:19:54;100571.78;;;-0.03;100.00
77939;BME280;67136;47.546;21.630;2023-11-19T03:23:22;100574.91;;;-0.18;100.00
77939;BME280;67136;47.546;21.630;2023-11-19T03:30:19;100567.72;;;-0.33;100.00
77939;BME280;67136;47.546;21.630;2023-11-19T03:33:42;100568.69;;;-0.37;100.00
77939;BME280;67136;47.546;21.630;2023-11-19T03:36:56;100560.69;;;-0.28;100.00
77939;BME280;67136;47.546;21.630;2023-11-19T03:40:12;100555.81;;;-0.35;100.00
77939;BME280;67136;47.546;21.630;2023-11-19T03:43:37;100548.19;;;-0.38;100.00
77939;BME280;67136;47.546;21.630;2023-11-19T03:46:58;100557.84;;;-0.45;100.00
77939;BME280;67136;47.546;21.630;2023-11-19T03:50:27;100556.47;;;-0.55;100.00
77939;BME280;67136;47.546;21.630;2023-11-19T03:54:09;100552.13;;;-0.53;100.00
77939;BME280;67136;47.546;21.630;2023-11-19T03:57:28;100545.69;;;-0.64;100.00
77939;BME280;67136;47.546;21.630;2023-11-19T04:00:46;100541.78;;;-0.76;100.00
77939;BME280;67136;47.546;21.630;2023-11-19T04:04:10;100542.06;;;-0.85;100.00
77939;BME280;67136;47.546;21.630;2023-11-19T04:07:47;100549.09;;;-0.90;100.00
77939;BME280;67136;47.546;21.630;2023-11-19T04:11:13;100540.78;;;-0.98;100.00
77939;BME280;67136;47.546;21.630;2023-11-19T04:14:25;100532.31;;;-1.00;100.00
77939;BME280;67136;47.546;21.630;2023-11-19T04:17:44;100529.03;;;-1.05;100.00
77939;BME280;67136;47.546;21.630;2023-11-19T04:21:06;100527.56;;;-1.12;100.00
77939;BME280;67136;47.546;21.630;2023-11-19T04:24:30;100536.25;;;-1.16;100.00
77939;BME280;67136;47.546;21.630;2023-11-19T04:27:50;100532.88;;;-1.18;100.00
77939;BME280;67136;47.546;21.630;2023-11-19T04:31:11;100520.28;;;-1.26;100.00
77939;BME280;67136;47.546;21.630;2023-11-19T04:34:16;100522.09;;;-1.29;100.00
77939;BME280;67136;47.546;21.630;2023-11-19T04:37:24;100525.63;;;-1.32;100.00
77939;BME280;67136;47.546;21.630;2023-11-19T04:40:40;100534.16;;;-1.33;100.00
77939;BME280;67136;47.546;21.630;2023-11-19T04:44:02;100535.13;;;-1.35;100.00
77939;BME280;67136;47.546;21.630;2023-11-19T04:47:23;100537.41;;;-1.26;100.00
77939;BME280;67136;47.546;21.630;2023-11-19T04:50:50;100527.19;;;-1.28;100.00
77939;BME280;67136;47.546;21.630;2023-11-19T04:54:24;100536.88;;;-1.37;100.00
77939;BME280;67136;47.546;21.630;2023-11-19T04:58:08;100535.13;;;-1.35;100.00
77939;BME280;67136;47.546;21.630;2023-11-19T05:01:29;100530.00;;;-1.35;100.00
77939;BME280;67136;47.546;21.630;2023-11-19T05:04:51;100533.53;;;-1.39;100.00
77939;BME280;67136;47.546;21.630;2023-11-19T05:08:19;100528.22;;;-1.33;100.00
77939;BME280;67136;47.546;21.630;2023-11-19T05:11:57;100541.53;;;-1.22;100.00
77939;BME280;67136;47.546;21.630;2023-11-19T05:15:43;100531.38;;;-1.25;100.00
77939;BME280;67136;47.546;21.630;2023-11-19T05:19:02;100512.53;;;-1.24;100.00
77939;BME280;67136;47.546;21.630;2023-11-19T05:22:19;100505.22;;;-1.36;100.00
77939;BME280;67136;47.546;21.630;2023-11-19T05:25:36;100500.72;;;-1.28;100.00
77939;BME280;67136;47.546;21.630;2023-11-19T05:29:07;100502.47;;;-1.30;100.00
77939;BME280;67136;47.546;21.630;2023-11-19T05:32:57;100510.97;;;-1.28;100.00
77939;BME280;67136;47.546;21.630;2023-11-19T05:36:13;100519.41;;;-1.24;100.00
77939;BME280;67136;47.546;21.630;2023-11-19T05:39:29;100517.59;;;-1.21;100.00
77939;BME280;67136;47.546;21.630;2023-11-19T05:42:50;100513.84;;;-1.11;100.00
77939;BME280;67136;47.546;21.630;2023-11-19T05:46:09;100513.69;;;-1.06;100.00
77939;BME280;67136;47.546;21.630;2023-11-19T05:49:33;100504.78;;;-0.95;100.00
77939;BME280;67136;47.546;21.630;2023-11-19T05:52:47;100504.56;;;-0.89;100.00
77939;BME280;67136;47.546;21.630;2023-11-19T05:56:14;100511.28;;;-0.85;100.00
77939;BME280;67136;47.546;21.630;2023-11-19T05:59:47;100523.03;;;-0.78;100.00
77939;BME280;67136;47.546;21.630;2023-11-19T06:03:14;100515.91;;;-0.70;100.00
77939;BME280;67136;47.546;21.630;2023-11-19T06:06:50;100504.38;;;-0.58;100.00
77939;BME280;67136;47.546;21.630;2023-11-19T06:13:58;100498.78;;;-0.45;100.00
77939;BME280;67136;47.546;21.630;2023-11-19T06:17:33;100481.84;;;-0.26;100.00
77939;BME280;67136;47.546;21.630;2023-11-19T06:21:25;100500.72;;;-0.27;100.00
77939;BME280;67136;47.546;21.630;2023-11-19T06:24:38;100512.44;;;-0.20;100.00
77939;BME280;67136;47.546;21.630;2023-11-19T06:27:47;100523.97;;;-0.07;100.00
77939;BME280;67136;47.546;21.630;2023-11-19T06:31:03;100519.66;;;-0.06;100.00
77939;BME280;67136;47.546;21.630;2023-11-19T06:34:28;100520.84;;;0.09;100.00
77939;BME280;67136;47.546;21.630;2023-11-19T06:37:58;100516.28;;;0.17;100.00
77939;BME280;67136;47.546;21.630;2023-11-19T06:41:20;100526.66;;;0.37;100.00
77939;BME280;67136;47.546;21.630;2023-11-19T06:48:10;100536.59;;;0.69;100.00
77939;BME280;67136;47.546;21.630;2023-11-19T06:51:48;100530.66;;;0.88;100.00
77939;BME280;67136;47.546;21.630;2023-11-19T06:55:02;100520.69;;;1.01;100.00
77939;BME280;67136;47.546;21.630;2023-11-19T06:58:18;100527.41;;;1.05;100.00
77939;BME280;67136;47.546;21.630;2023-11-19T07:01:36;100536.47;;;0.93;100.00
77939;BME280;67136;47.546;21.630;2023-11-19T07:04:50;100554.47;;;1.15;100.00
77939;BME280;67136;47.546;21.630;2023-11-19T07:08:12;100549.97;;;1.20;100.00
77939;BME280;67136;47.546;21.630;2023-11-19T07:11:39;100546.75;;;1.15;100.00
77939;BME280;67136;47.546;21.630;2023-11-19T07:14:59;100561.12;;;1.20;100.00
77939;BME280;67136;47.546;21.630;2023-11-19T07:18:37;100555.13;;;1.20;100.00
77939;BME280;67136;47.546;21.630;2023-11-19T07:21:54;100555.09;;;1.42;100.00
77939;BME280;67136;47.546;21.630;2023-11-19T07:25:28;100563.03;;;1.57;100.00
77939;BME280;67136;47.546;21.630;2023-11-19T07:29:13;100548.00;;;1.67;100.00
77939;BME280;67136;47.546;21.630;2023-11-19T07:32:41;100551.69;;;2.01;99.93
77939;BME280;67136;47.546;21.630;2023-11-19T07:36:27;100524.94;;;2.41;96.96
77939;BME280;67136;47.546;21.630;2023-11-19T07:40:01;100531.72;;;2.98;93.59
77939;BME280;67136;47.546;21.630;2023-11-19T07:43:26;100544.97;;;3.09;91.53
77939;BME280;67136;47.546;21.630;2023-11-19T07:46:48;100544.09;;;3.44;87.85
77939;BME280;67136;47.546;21.630;2023-11-19T07:50:26;100538.31;;;4.06;85.72
77939;BME280;67136;47.546;21.630;2023-11-19T07:57:26;100529.75;;;3.03;88.49
77939;BME280;67136;47.546;21.630;2023-11-19T08:01:09;100521.75;;;3.26;87.45
77939;BME280;67136;47.546;21.630;2023-11-19T08:04:25;100529.94;;;3.34;87.97
77939;BME280;67136;47.546;21.630;2023-11-19T08:07:35;100537.09;;;4.13;84.32
77939;BME280;67136;47.546;21.630;2023-11-19T08:11:02;100541.31;;;4.31;83.16
77939;BME280;67136;47.546;21.630;2023-11-19T08:14:19;100527.44;;;4.16;81.03
77939;BME280;67136;47.546;21.630;2023-11-19T08:17:37;100520.16;;;5.46;75.71
77939;BME280;67136;47.546;21.630;2023-11-19T08:20:55;100528.56;;;5.20;77.14
77939;BME280;67136;47.546;21.630;2023-11-19T08:24:35;100523.59;;;4.23;79.48
77939;BME280;67136;47.546;21.630;2023-11-19T08:28:06;100514.00;;;3.93;80.32
77939;BME280;67136;47.546;21.630;2023-11-19T08:31:33;100508.03;;;4.08;81.88
77939;BME280;67136;47.546;21.630;2023-11-19T08:34:54;100502.69;;;3.78;82.39
77939;BME280;67136;47.546;21.630;2023-11-19T08:38:42;100488.88;;;4.27;80.54
77939;BME280;67136;47.546;21.630;2023-11-19T08:41:56;100485.16;;;3.16;84.94
77939;BME280;67136;47.546;21.630;2023-11-19T08:49:06;100490.19;;;3.19;85.43
77939;BME280;67136;47.546;21.630;2023-11-19T08:52:31;100481.59;;;3.02;86.46
77939;BME280;67136;47.546;21.630;2023-11-19T09:00:01;100503.19;;;3.18;85.26
77939;BME280;67136;47.546;21.630;2023-11-19T09:03:42;100511.25;;;3.96;81.82
77939;BME280;67136;47.546;21.630;2023-11-19T09:07:05;100517.16;;;3.82;82.25
77939;BME280;67136;47.546;21.630;2023-11-19T09:10:34;100480.06;;;3.99;81.15
77939;BME280;67136;47.546;21.630;2023-11-19T09:13:59;100485.53;;;4.72;77.03
77939;BME280;67136;47.546;21.630;2023-11-19T09:17:12;100468.34;;;5.30;75.91
77939;BME280;67136;47.546;21.630;2023-11-19T09:21:04;100488.84;;;4.89;76.93
77939;BME280;67136;47.546;21.630;2023-11-19T09:24:35;100465.16;;;5.41;75.89
77939;BME280;67136;47.546;21.630;2023-11-19T09:27:48;100465.50;;;4.44;77.97
77939;BME280;67136;47.546;21.630;2023-11-19T09:31:18;100452.62;;;4.27;80.72
77939;BME280;67136;47.546;21.630;2023-11-19T09:34:29;100443.72;;;3.69;82.59
77939;BME280;67136;47.546;21.630;2023-11-19T09:37:45;100442.19;;;3.65;84.67
77939;BME280;67136;47.546;21.630;2023-11-19T09:41:52;100447.63;;;4.24;81.47
77939;BME280;67136;47.546;21.630;2023-11-19T09:45:52;100452.62;;;4.12;80.72
77939;BME280;67136;47.546;21.630;2023-11-19T09:49:39;100448.75;;;4.81;79.24
77939;BME280;67136;47.546;21.630;2023-11-19T09:52:51;100430.37;;;3.76;83.39
77939;BME280;67136;47.546;21.630;2023-11-19T09:56:14;100417.56;;;4.53;80.23
77939;BME280;67136;47.546;21.630;2023-11-19T10:00:03;100424.41;;;4.07;82.16
77939;BME280;67136;47.546;21.630;2023-11-19T10:03:15;100406.91;;;4.43;80.53
77939;BME280;67136;47.546;21.630;2023-11-19T10:06:39;100413.22;;;4.22;82.05
77939;BME280;67136;47.546;21.630;2023-11-19T10:10:04;100431.62;;;4.33;80.95
77939;BME280;67136;47.546;21.630;2023-11-19T10:13:37;100433.09;;;4.53;80.06
77939;BME280;67136;47.546;21.630;2023-11-19T10:17:38;100430.09;;;4.29;79.30
77939;BME280;67136;47.546;21.630;2023-11-19T10:21:01;100437.00;;;4.75;77.49
77939;BME280;67136;47.546;21.630;2023-11-19T10:24:37;100438.84;;;5.47;75.90
77939;BME280;67136;47.546;21.630;2023-11-19T10:31:30;100446.25;;;4.79;77.52
77939;BME280;67136;47.546;21.630;2023-11-19T10:34:36;100458.50;;;4.46;78.95
77939;BME280;67136;47.546;21.630;2023-11-19T10:38:17;100456.91;;;4.28;80.29
77939;BME280;67136;47.546;21.630;2023-11-19T10:41:41;100444.13;;;4.10;81.10
77939;BME280;67136;47.546;21.630;2023-11-19T10:45:47;100443.38;;;3.75;83.47
77939;BME280;67136;47.546;21.630;2023-11-19T10:48:59;100444.03;;;4.11;82.09
77939;BME280;67136;47.546;21.630;2023-11-19T10:56:17;100417.56;;;4.37;82.53
77939;BME280;67136;47.546;21.630;2023-11-19T10:59:35;100427.94;;;4.06;84.46
77939;BME280;67136;47.546;21.630;2023-11-19T11:02:56;100404.03;;;4.17;83.58
77939;BME280;67136;47.546;21.630;2023-11-19T11:06:30;100388.72;;;3.98;84.45
77939;BME280;67136;47.546;21.630;2023-11-19T11:09:49;100400.06;;;4.11;84.11
77939;BME280;67136;47.546;21.630;2023-11-19T11:13:27;100409.38;;;4.14;85.13
77939;BME280;67136;47.546;21.630;2023-11-19T11:20:02;100393.19;;;3.79;85.66
77939;BME280;67136;47.546;21.630;2023-11-19T11:23:42;100390.00;;;3.74;87.36
77939;BME280;67136;47.546;21.630;2023-11-19T11:31:34;100380.13;;;3.65;87.92
77939;BME280;67136;47.546;21.630;2023-11-19T11:35:28;100381.12;;;3.47;89.38
77939;BME280;67136;47.546;21.630;2023-11-19T11:38:48;100365.72;;;3.76;88.12
77939;BME280;67136;47.546;21.630;2023-11-19T11:45:59;100354.66;;;3.74;88.56
77939;BME280;67136;47.546;21.630;2023-11-19T11:49:56;100370.66;;;3.65;88.92
77939;BME280;67136;47.546;21.630;2023-11-19T11:53:25;100358.97;;;3.74;88.95
77939;BME280;67136;47.546;21.630;2023-11-19T11:57:14;100359.41;;;3.82;88.78
77939;BME280;67136;47.546;21.630;2023-11-19T12:00:40;100358.63;;;3.80;89.10
77939;BME280;67136;47.546;21.630;2023-11-19T12:03:55;100347.25;;;3.51;90.11
77939;BME280;67136;47.546;21.630;2023-11-19T12:11:00;100334.59;;;3.47;89.97
77939;BME280;67136;47.546;21.630;2023-11-19T12:14:13;100324.09;;;3.50;88.64
77939;BME280;67136;47.546;21.630;2023-11-19T12:21:11;100328.44;;;3.65;88.58
77939;BME280;67136;47.546;21.630;2023-11-19T12:24:43;100332.59;;;3.52;89.76
77939;BME280;67136;47.546;21.630;2023-11-19T12:28:25;100339.78;;;3.62;90.07
77939;BME280;67136;47.546;21.630;2023-11-19T12:31:54;100342.25;;;3.48;91.22
77939;BME280;67136;47.546;21.630;2023-11-19T12:35:31;100339.41;;;3.53;91.82
77939;BME280;67136;47.546;21.630;2023-11-19T12:38:56;100338.44;;;3.55;92.03
77939;BME280;67136;47.546;21.630;2023-11-19T12:42:09;100339.13;;;3.59;92.21
77939;BME280;67136;47.546;21.630;2023-11-19T12:45:47;100334.12;;;3.56;93.20
77939;BME280;67136;47.546;21.630;2023-11-19T12:49:13;100323.50;;;3.45;93.65
77939;BME280;67136;47.546;21.630;2023-11-19T12:52:24;100317.59;;;3.58;93.32
77939;BME280;67136;47.546;21.630;2023-11-19T12:55:31;100315.56;;;3.48;93.77
77939;BME280;67136;47.546;21.630;2023-11-19T12:58:56;100296.41;;;3.52;94.07
77939;BME280;67136;47.546;21.630;2023-11-19T13:02:51;100287.91;;;3.65;94.24
77939;BME280;67136;47.546;21.630;2023-11-19T13:06:24;100293.06;;;3.50;94.72
77939;BME280;67136;47.546;21.630;2023-11-19T13:09:36;100275.41;;;3.58;95.30
77939;BME280;67136;47.546;21.630;2023-11-19T13:13:07;100271.50;;;3.51;95.65
77939;BME280;67136;47.546;21.630;2023-11-19T13:16:14;100270.75;;;3.49;97.33
77939;BME280;67136;47.546;21.630;2023-11-19T13:19:47;100267.06;;;3.53;97.37
77939;BME280;67136;47.546;21.630;2023-11-19T13:23:12;100263.75;;;3.51;98.06
77939;BME280;67136;47.546;21.630;2023-11-19T13:26:40;100263.00;;;3.64;97.37
77939;BME280;67136;47.546;21.630;2023-11-19T13:29:56;100264.91;;;3.61;98.10
77939;BME280;67136;47.546;21.630;2023-11-19T13:33:13;100258.72;;;3.63;98.01
77939;BME280;67136;47.546;21.630;2023-11-19T13:36:33;100246.06;;;3.59;98.25
77939;BME280;67136;47.546;21.630;2023-11-19T13:39:42;100242.22;;;3.66;97.32
77939;BME280;67136;47.546;21.630;2023-11-19T13:42:47;100246.97;;;3.58;98.38
77939;BME280;67136;47.546;21.630;2023-11-19T13:46:16;100250.56;;;3.55;98.67
77939;BME280;67136;47.546;21.630;2023-11-19T13:49:44;100260.47;;;3.63;98.37
77939;BME280;67136;47.546;21.630;2023-11-19T13:53:07;100268.56;;;3.57;100.00
77939;BME280;67136;47.546;21.630;2023-11-19T13:56:28;100256.72;;;3.53;100.00
77939;BME280;67136;47.546;21.630;2023-11-19T13:59:31;100250.06;;;3.49;100.00
77939;BME280;67136;47.546;21.630;2023-11-19T14:02:54;100228.62;;;3.47;100.00
77939;BME280;67136;47.546;21.630;2023-11-19T14:06:13;100224.53;;;3.43;100.00
77939;BME280;67136;47.546;21.630;2023-11-19T14:09:49;100211.03;;;3.38;100.00
77939;BME280;67136;47.546;21.630;2023-11-19T14:13:33;100198.94;;;3.23;100.00
77939;BME280;67136;47.546;21.630;2023-11-19T14:16:50;100199.75;;;3.08;100.00
77939;BME280;67136;47.546;21.630;2023-11-19T14:20:18;100214.84;;;3.00;100.00
77939;BME280;67136;47.546;21.630;2023-11-19T14:23:31;100214.53;;;3.06;100.00
77939;BME280;67136;47.546;21.630;2023-11-19T14:26:54;100180.69;;;2.95;100.00
77939;BME280;67136;47.546;21.630;2023-11-19T14:30:21;100188.25;;;2.98;100.00
77939;BME280;67136;47.546;21.630;2023-11-19T14:33:43;100174.75;;;2.93;100.00
77939;BME280;67136;47.546;21.630;2023-11-19T14:37:03;100172.00;;;2.96;100.00
77939;BME280;67136;47.546;21.630;2023-11-19T14:40:35;100167.00;;;2.93;100.00
77939;BME280;67136;47.546;21.630;2023-11-19T14:44:01;100170.78;;;3.03;100.00
77939;BME280;67136;47.546;21.630;2023-11-19T14:47:46;100155.63;;;2.97;100.00
77939;BME280;67136;47.546;21.630;2023-11-19T14:51:09;100147.88;;;2.97;100.00
77939;BME280;67136;47.546;21.630;2023-11-19T14:54:18;100156.47;;;2.97;100.00
77939;BME280;67136;47.546;21.630;2023-11-19T14:58:01;100148.53;;;3.00;100.00
77939;BME280;67136;47.546;21.630;2023-11-19T15:01:12;100162.69;;;2.93;100.00
77939;BME280;67136;47.546;21.630;2023-11-19T15:04:28;100152.28;;;2.95;100.00
77939;BME280;67136;47.546;21.630;2023-11-19T15:07:58;100145.56;;;2.92;100.00
77939;BME280;67136;47.546;21.630;2023-11-19T15:11:38;100133.78;;;2.87;100.00
77939;BME280;67136;47.546;21.630;2023-11-19T15:15:18;100147.19;;;2.78;100.00
77939;BME280;67136;47.546;21.630;2023-11-19T15:18:31;100119.13;;;2.72;100.00
77939;BME280;67136;47.546;21.630;2023-11-19T15:22:36;100134.59;;;2.72;100.00
77939;BME280;67136;47.546;21.630;2023-11-19T15:26:05;100147.69;;;2.69;100.00
77939;BME280;67136;47.546;21.630;2023-11-19T15:29:19;100152.50;;;2.75;100.00
77939;BME280;67136;47.546;21.630;2023-11-19T15:32:36;100142.34;;;2.72;100.00
77939;BME280;67136;47.546;21.630;2023-11-19T15:35:57;100142.34;;;2.72;100.00
77939;BME280;67136;47.546;21.630;2023-11-19T15:39:19;100118.63;;;2.65;100.00
77939;BME280;67136;47.546;21.630;2023-11-19T15:42:36;100122.69;;;2.69;100.00
77939;BME280;67136;47.546;21.630;2023-11-19T15:45:59;100111.53;;;2.69;100.00
77939;BME280;67136;47.546;21.630;2023-11-19T15:49:24;100118.19;;;2.73;100.00
77939;BME280;67136;47.546;21.630;2023-11-19T15:52:34;100118.94;;;2.75;100.00
77939;BME280;67136;47.546;21.630;2023-11-19T15:55:56;100107.69;;;2.76;100.00
77939;BME280;67136;47.546;21.630;2023-11-19T15:59:13;100128.03;;;2.82;100.00
77939;BME280;67136;47.546;21.630;2023-11-19T16:02:41;100152.16;;;2.81;100.00
77939;BME280;67136;47.546;21.630;2023-11-19T16:06:09;100156.84;;;2.90;100.00
77939;BME280;67136;47.546;21.630;2023-11-19T16:09:45;100161.03;;;2.92;100.00
77939;BME280;67136;47.546;21.630;2023-11-19T16:13:32;100176.19;;;2.98;100.00
77939;BME280;67136;47.546;21.630;2023-11-19T16:16:54;100178.69;;;3.00;100.00
77939;BME280;67136;47.546;21.630;2023-11-19T16:20:11;100191.34;;;2.89;100.00
77939;BME280;67136;47.546;21.630;2023-11-19T16:23:27;100178.56;;;2.86;100.00
77939;BME280;67136;47.546;21.630;2023-11-19T16:26:40;100164.91;;;2.68;100.00
77939;BME280;67136;47.546;21.630;2023-11-19T16:30:16;100151.38;;;2.47;100.00
77939;BME280;67136;47.546;21.630;2023-11-19T16:37:25;100146.09;;;2.33;100.00
77939;BME280;67136;47.546;21.630;2023-11-19T16:40:38;100133.94;;;2.35;100.00
77939;BME280;67136;47.546;21.630;2023-11-19T16:44:02;100153.84;;;2.33;100.00
77939;BME280;67136;47.546;21.630;2023-11-19T16:47:27;100149.94;;;2.42;100.00
77939;BME280;67136;47.546;21.630;2023-11-19T16:50:54;100153.34;;;2.42;100.00
77939;BME280;67136;47.546;21.630;2023-11-19T16:54:19;100146.63;;;2.40;100.00
77939;BME280;67136;47.546;21.630;2023-11-19T16:57:42;100150.75;;;2.42;100.00
77939;BME280;67136;47.546;21.630;2023-11-19T17:01:14;100149.13;;;2.41;100.00
77939;BME280;67136;47.546;21.630;2023-11-19T17:04:38;100150.59;;;2.45;100.00
77939;BME280;67136;47.546;21.630;2023-11-19T17:07:57;100142.13;;;2.43;100.00
77939;BME280;67136;47.546;21.630;2023-11-19T17:11:13;100133.62;;;2.41;100.00
77939;BME280;67136;47.546;21.630;2023-11-19T17:14:25;100129.16;;;2.45;100.00
77939;BME280;67136;47.546;21.630;2023-11-19T17:17:48;100120.41;;;2.47;100.00
77939;BME280;67136;47.546;21.630;2023-11-19T17:21:18;100108.19;;;2.51;100.00
77939;BME280;67136;47.546;21.630;2023-11-19T17:24:29;100111.50;;;2.53;100.00
77939;BME280;67136;47.546;21.630;2023-11-19T17:28:18;100105.22;;;2.59;100.00
77939;BME280;67136;47.546;21.630;2023-11-19T17:31:47;100083.22;;;2.51;100.00
77939;BME280;67136;47.546;21.630;2023-11-19T17:35:10;100078.06;;;2.51;100.00
77939;BME280;67136;47.546;21.630;2023-11-19T17:38:38;100074.47;;;2.54;100.00
77939;BME280;67136;47.546;21.630;2023-11-19T17:45:13;100052.09;;;2.54;100.00
77939;BME280;67136;47.546;21.630;2023-11-19T17:48:29;100040.91;;;2.54;100.00
77939;BME280;67136;47.546;21.630;2023-11-19T17:51:43;100040.03;;;2.55;100.00
77939;BME280;67136;47.546;21.630;2023-11-19T17:55:01;100043.41;;;2.55;100.00
77939;BME280;67136;47.546;21.630;2023-11-19T17:58:51;100031.62;;;2.51;100.00
77939;BME280;67136;47.546;21.630;2023-11-19T18:02:14;100026.63;;;2.48;100.00
77939;BME280;67136;47.546;21.630;2023-11-19T18:05:32;100041.09;;;2.51;100.00
77939;BME280;67136;47.546;21.630;2023-11-19T18:08:56;100046.56;;;2.61;100.00
77939;BME280;67136;47.546;21.630;2023-11-19T18:12:16;100053.09;;;2.68;100.00
77939;BME280;67136;47.546;21.630;2023-11-19T18:15:48;100042.59;;;2.71;100.00
77939;BME280;67136;47.546;21.630;2023-11-19T18:19:34;100046.50;;;2.78;100.00
77939;BME280;67136;47.546;21.630;2023-11-19T18:22:52;100036.09;;;2.79;100.00
77939;BME280;67136;47.546;21.630;2023-11-19T18:26:24;100041.25;;;2.79;100.00
77939;BME280;67136;47.546;21.630;2023-11-19T18:29:56;100046.91;;;2.86;100.00
77939;BME280;67136;47.546;21.630;2023-11-19T18:33:28;100037.44;;;2.86;100.00
77939;BME280;67136;47.546;21.630;2023-11-19T18:36:48;100029.59;;;2.88;100.00